This is the latest recevied weather packets stored in our database for station/object KD2CRT. If no packets are shown the sender has not sent any weather packets the latest 10 day(s).
| Time | Temp. | Humidity | Pressure | Rain* | Wind** | Luminosity | Snow |
|---|---|---|---|---|---|---|---|
| 1777960809 | 11.67° C | 79% | 995.5 hPa | 0 mm | - | - | - |
| 1777953648 | 15° C | 66% | 995.8 hPa | 0 mm | - | - | - |
| 1777950002 | 15.56° C | 60% | 995.9 hPa | 0 mm | - | - | - |
| 1777946453 | 14.44° C | 58% | 996.2 hPa | 0 mm | - | - | - |
| 1777942814 | 17.22° C | 48% | 995.4 hPa | 0 mm | - | - | - |
| 1777942806 | 17.22° C | 48% | 995.4 hPa | 0 mm | - | - | - |
| 1777939258 | 20° C | 40% | 994.9 hPa | 0 mm | - | - | - |
| 1777935614 | 22.22° C | 35% | 994.3 hPa | 0 mm | - | - | - |
| 1777935610 | 22.22° C | 35% | 994.3 hPa | 0 mm | - | - | - |
| 1777928415 | 23.89° C | 33% | 994.8 hPa | 0 mm | - | - | - |
| 1777928406 | 23.89° C | 33% | 994.8 hPa | 0 mm | - | - | - |
| 1777924859 | 23.89° C | 34% | 994.8 hPa | 0 mm | - | - | - |
| 1777921216 | 23.89° C | 36% | 995.5 hPa | 0 mm | - | - | - |
| 1777921212 | 23.89° C | 36% | 995.5 hPa | 0 mm | - | - | - |
| 1777914020 | 21.11° C | 36% | 997.2 hPa | 0 mm | - | - | - |
| 1777906821 | 19.44° C | 41% | 998.4 hPa | 0 mm | - | - | - |
| 1777899625 | 15° C | 61% | 999.5 hPa | 0 mm | - | - | - |
| 1777892422 | 6.11° C | 80% | 1000 hPa | 0 mm | - | - | - |
| 1777885231 | 3.33° C | 81% | 999.6 hPa | 0 mm | - | - | - |
| 1777881582 | 5° C | 74% | 999.5 hPa | 0 mm | - | - | - |
| 1777877988 | 8.33° C | 63% | 999.4 hPa | 0 mm | - | - | - |
| 1777874430 | 7.78° C | 63% | 999 hPa | 0 mm | - | - | - |
| 1777870784 | 5° C | 74% | 999 hPa | 0 mm | - | - | - |
| 1777867230 | 6.11° C | 67% | 998.6 hPa | 0 mm | - | - | - |
| 1777863587 | 7.22° C | 61% | 998.3 hPa | 0 mm | - | - | - |
* Rain latest hour (hover to see other rain measurements)
** Current wind speed in m/s (hover to see current wind gust speed)